Time;durP1;ratioP1;P1;durP2;ratioP2;P2;SDS_P1;SDS_P2;PMS_P1;PMS_P2;Temp;Humidity;BMP_temperature;BMP_pressure;BME280_temperature;BME280_humidity;BME280_pressure;Samples;Min_cycle;Max_cycle;Signal;HPM_P1;HPM_P2
2022/09/19 00:01:30;;;;;;;2.45;0.73;;;;;;;19.50;66.97;100155.09;5091132;28;20032;-50
2022/09/19 00:04:02;;;;;;;1.65;0.70;;;;;;;19.43;64.62;100155.41;5091861;28;20441;-48
2022/09/19 00:06:30;;;;;;;3.05;0.85;;;;;;;19.34;65.67;100151.66;5090334;28;20059;-49
2022/09/19 00:08:58;;;;;;;3.83;1.02;;;;;;;19.49;65.60;100153.47;5091230;28;20053;-50
2022/09/19 00:11:26;;;;;;;3.00;1.13;;;;;;;19.47;64.91;100150.22;5091444;28;20031;-49
2022/09/19 00:13:53;;;;;;;1.67;0.75;;;;;;;19.49;65.25;100156.19;5091528;28;20020;-47
2022/09/19 00:16:35;;;;;;;2.35;0.70;;;;;;;19.50;65.83;100164.03;5092588;28;20036;-50
2022/09/19 00:19:04;;;;;;;4.93;1.30;;;;;;;19.53;64.62;100160.75;5095087;28;20055;-49
2022/09/19 00:21:36;;;;;;;2.97;1.20;;;;;;;19.38;64.43;100168.19;5085234;28;20607;-49
2022/09/19 00:26:47;;;;;;;3.35;1.10;;;;;;;19.43;65.26;100163.56;5075668;28;20105;-47
2022/09/19 00:29:15;;;;;;;1.83;0.88;;;;;;;19.42;66.16;100169.25;5074538;28;20472;-50
2022/09/19 00:31:43;;;;;;;3.45;1.13;;;;;;;19.37;67.59;100171.97;5075148;28;20469;-49
2022/09/19 00:34:10;;;;;;;4.93;1.23;;;;;;;19.20;70.43;100170.44;5092159;28;20468;-50
2022/09/19 00:36:38;;;;;;;3.92;1.30;;;;;;;19.00;72.76;100181.41;5095373;28;20070;-47
2022/09/19 00:39:06;;;;;;;2.35;1.20;;;;;;;19.00;73.03;100176.00;5091885;28;20395;-48
2022/09/19 00:41:33;;;;;;;3.17;1.33;;;;;;;18.67;74.05;100186.41;5095451;28;20024;-48
2022/09/19 00:44:03;;;;;;;4.65;1.65;;;;;;;18.70;74.94;100187.75;5083214;28;20039;-49
2022/09/19 00:46:32;;;;;;;5.40;1.55;;;;;;;18.58;75.71;100185.31;5087880;28;20105;-52
2022/09/19 00:49:08;;;;;;;6.63;1.52;;;;;;;18.42;77.25;100192.66;5094861;28;20038;-52
2022/09/19 00:51:46;;;;;;;4.72;1.42;;;;;;;18.55;77.97;100202.13;5095363;28;20477;-52
2022/09/19 00:54:16;;;;;;;6.63;1.67;;;;;;;18.49;78.25;100195.09;5095057;28;20032;-52
2022/09/19 00:56:49;;;;;;;9.30;2.42;;;;;;;18.50;78.90;100207.56;5095004;28;20464;-51
2022/09/19 00:59:17;;;;;;;5.38;1.92;;;;;;;18.38;79.17;100223.28;5094522;28;20085;-49
2022/09/19 01:01:44;;;;;;;11.30;2.70;;;;;;;18.30;79.90;100218.41;5084861;28;20036;-51
2022/09/19 01:04:19;;;;;;;10.27;3.13;;;;;;;18.26;79.92;100220.84;5074451;28;20021;-51
2022/09/19 01:06:58;;;;;;;7.43;2.15;;;;;;;18.29;80.64;100228.44;5079985;28;20407;-51
2022/09/19 01:09:48;;;;;;;7.07;2.38;;;;;;;18.26;81.12;100228.97;5094852;28;20032;-49
2022/09/19 01:12:44;;;;;;;15.68;2.90;;;;;;;18.13;82.00;100224.91;5084629;28;20032;-50
2022/09/19 01:15:38;;;;;;;9.50;2.60;;;;;;;18.00;83.65;100224.66;5083525;28;20039;-51
2022/09/19 01:18:06;;;;;;;7.50;2.90;;;;;;;17.95;82.79;100225.47;5074163;28;20047;-51
2022/09/19 01:23:57;;;;;;;9.32;2.70;;;;;;;17.93;83.40;100241.13;5080403;28;20104;-52
2022/09/19 01:26:50;;;;;;;9.85;2.88;;;;;;;17.97;83.00;100253.06;5094492;28;20032;-53
2022/09/19 01:30:18;;;;;;;8.98;3.45;;;;;;;17.98;82.29;100257.41;5093789;28;20050;-52
2022/09/19 01:32:56;;;;;;;8.55;2.97;;;;;;;17.98;82.42;100270.94;5081528;28;20130;-51
2022/09/19 01:35:29;;;;;;;8.38;2.40;;;;;;;17.93;83.06;100268.22;5113097;28;20035;-52
2022/09/19 01:38:07;;;;;;;9.45;2.60;;;;;;;17.99;82.45;100266.34;5098135;27;20114;-51
2022/09/19 01:40:35;;;;;;;8.23;2.78;;;;;;;17.95;82.74;100285.03;5092540;28;20099;-50
2022/09/19 01:43:01;;;;;;;10.68;2.55;;;;;;;17.94;83.25;100284.22;5079558;28;20024;-51
2022/09/19 01:45:40;;;;;;;11.93;2.83;;;;;;;17.95;83.87;100282.31;5094312;28;20051;-51
2022/09/19 01:48:16;;;;;;;8.88;2.10;;;;;;;17.91;83.25;100278.50;5101392;28;20085;-48
2022/09/19 01:51:10;;;;;;;11.68;2.60;;;;;;;17.81;83.63;100281.19;5108129;28;20446;-51
2022/09/19 01:53:46;;;;;;;7.90;2.33;;;;;;;17.92;83.60;100282.84;5089678;28;20070;-51
2022/09/19 01:56:27;;;;;;;8.63;2.47;;;;;;;18.04;83.69;100285.28;5075973;28;20021;-51
2022/09/19 01:59:06;;;;;;;10.20;2.83;;;;;;;17.62;83.59;100292.50;5095912;28;20046;-49
2022/09/19 02:01:55;;;;;;;9.93;3.28;;;;;;;17.75;83.37;100301.22;5106060;28;20032;-51
2022/09/19 02:04:34;;;;;;;7.88;2.33;;;;;;;17.65;83.37;100291.94;5089390;28;20043;-50
2022/09/19 02:07:24;;;;;;;11.55;2.95;;;;;;;17.72;82.97;100294.47;5113887;27;20032;-51
2022/09/19 02:10:02;;;;;;;11.18;2.65;;;;;;;17.60;82.84;100300.06;5110840;28;20096;-52
2022/09/19 02:12:32;;;;;;;6.30;2.45;;;;;;;17.60;82.69;100302.78;5092711;27;20107;-51
2022/09/19 02:15:01;;;;;;;5.32;2.67;;;;;;;17.45;84.06;100296.50;5081007;28;20120;-52
2022/09/19 02:17:55;;;;;;;9.75;2.58;;;;;;;17.56;83.87;100307.09;5089115;28;20056;-51
2022/09/19 02:20:32;;;;;;;5.25;2.05;;;;;;;17.52;83.68;100311.41;5093166;28;20042;-49
2022/09/19 02:23:12;;;;;;;6.80;2.72;;;;;;;17.53;84.20;100307.59;5099574;28;20110;-51
2022/09/19 02:25:40;;;;;;;7.63;2.63;;;;;;;17.58;83.73;100304.91;5113738;28;20035;-51
2022/09/19 02:28:16;;;;;;;9.85;2.47;;;;;;;17.58;83.60;100304.91;5114012;28;20234;-50
2022/09/19 02:30:43;;;;;;;7.43;2.33;;;;;;;17.60;83.51;100308.19;5113652;28;20019;-52
2022/09/19 02:33:11;;;;;;;5.47;2.25;;;;;;;17.62;83.63;100307.91;5095703;28;20051;-50
2022/09/19 02:36:01;;;;;;;5.35;2.40;;;;;;;17.55;83.82;100305.47;5073289;28;20377;-51
2022/09/19 02:38:37;;;;;;;6.72;2.20;;;;;;;17.54;84.57;100306.53;5072850;28;20032;-50
2022/09/19 02:41:27;;;;;;;8.30;2.20;;;;;;;17.59;83.98;100311.94;5077251;28;20024;-51
2022/09/19 02:44:21;;;;;;;5.07;1.77;;;;;;;17.75;83.91;100315.56;5079972;28;20020;-51
2022/09/19 02:47:24;;;;;;;6.60;2.17;;;;;;;17.69;83.76;100322.81;5091910;28;20361;-51
2022/09/19 02:50:00;;;;;;;6.57;2.63;;;;;;;17.76;83.35;100332.63;5097051;28;20111;-50
2022/09/19 02:52:32;;;;;;;5.70;2.30;;;;;;;17.57;84.28;100330.34;5094468;27;20036;-51
2022/09/19 02:55:09;;;;;;;6.82;2.67;;;;;;;17.66;84.30;100336.09;5098678;28;20039;-51
2022/09/19 02:57:37;;;;;;;6.93;2.30;;;;;;;17.74;83.91;100338.28;5091071;28;20106;-51
2022/09/19 03:00:05;;;;;;;6.65;2.38;;;;;;;17.82;83.44;100342.38;5100701;28;20123;-51
2022/09/19 03:02:43;;;;;;;7.72;2.13;;;;;;;17.63;84.81;100347.44;5109645;28;20027;-51
2022/09/19 03:05:17;;;;;;;5.95;2.10;;;;;;;17.67;84.35;100356.66;5095391;28;20051;-52
2022/09/19 03:07:50;;;;;;;5.63;2.47;;;;;;;17.60;84.82;100351.50;5109230;28;20027;-50
2022/09/19 03:10:31;;;;;;;4.88;2.67;;;;;;;17.45;85.50;100353.31;5107581;28;20041;-52
2022/09/19 03:13:04;;;;;;;6.05;2.50;;;;;;;17.68;84.80;100359.09;5104019;28;20447;-50
2022/09/19 03:15:49;;;;;;;7.78;2.72;;;;;;;17.87;84.35;100361.34;5102816;28;20367;-51
2022/09/19 03:18:21;;;;;;;8.90;2.60;;;;;;;17.96;83.70;100357.06;5111286;28;20126;-51
2022/09/19 03:20:51;;;;;;;8.75;2.50;;;;;;;17.90;83.46;100374.38;5110800;28;20039;-50
2022/09/19 03:23:23;;;;;;;8.32;2.47;;;;;;;17.97;82.61;100374.91;5100162;28;20509;-52
2022/09/19 03:25:49;;;;;;;7.60;2.22;;;;;;;18.09;80.48;100383.63;5099859;28;20099;-51
2022/09/19 03:28:19;;;;;;;6.13;1.98;;;;;;;17.98;80.83;100381.97;5104828;28;20024;-48
2022/09/19 03:30:46;;;;;;;9.20;2.70;;;;;;;18.04;80.10;100383.59;5111275;28;20539;-49
2022/09/19 03:33:15;;;;;;;7.93;2.13;;;;;;;17.98;80.50;100387.38;5096198;28;20296;-51
2022/09/19 03:35:44;;;;;;;8.25;1.80;;;;;;;18.01;80.77;100400.41;5087499;28;20389;-51
2022/09/19 03:38:10;;;;;;;7.18;1.92;;;;;;;18.07;80.18;100403.94;5097335;28;20576;-51
2022/09/19 03:40:37;;;;;;;9.98;2.35;;;;;;;18.00;80.03;100404.19;5092597;28;20031;-51
2022/09/19 03:43:04;;;;;;;7.45;2.22;;;;;;;18.01;80.31;100410.41;5102804;28;20024;-52
2022/09/19 03:45:30;;;;;;;7.82;2.08;;;;;;;18.00;78.98;100415.03;5102481;28;20020;-51
2022/09/19 03:47:56;;;;;;;4.82;1.50;;;;;;;17.89;77.54;100411.47;5106467;28;20110;-49
2022/09/19 03:50:23;;;;;;;10.98;2.00;;;;;;;17.93;77.02;100414.44;5093057;28;20036;-51
2022/09/19 03:52:49;;;;;;;7.30;2.08;;;;;;;17.82;77.90;100429.00;5103661;28;20027;-51
2022/09/19 03:55:17;;;;;;;6.55;2.58;;;;;;;17.89;77.63;100430.41;5110386;28;20035;-51
2022/09/19 03:57:43;;;;;;;9.43;2.10;;;;;;;17.90;78.23;100436.63;5102698;28;20051;-51
2022/09/19 04:00:11;;;;;;;8.27;2.08;;;;;;;17.84;78.47;100430.38;5103830;28;20472;-52
2022/09/19 04:02:37;;;;;;;6.80;1.85;;;;;;;17.88;77.21;100439.63;5106052;28;20039;-51
2022/09/19 04:05:04;;;;;;;8.02;2.05;;;;;;;17.69;78.37;100441.91;5110503;28;20039;-51
2022/09/19 04:07:30;;;;;;;10.27;2.40;;;;;;;17.72;78.29;100445.19;5106453;28;20052;-49
2022/09/19 04:09:56;;;;;;;9.43;2.00;;;;;;;17.71;78.22;100443.53;5111454;28;20567;-49
2022/09/19 04:12:23;;;;;;;9.98;2.25;;;;;;;17.77;77.76;100451.47;5103321;28;20093;-50
2022/09/19 04:14:50;;;;;;;6.88;1.80;;;;;;;17.69;78.30;100444.63;5105160;28;20415;-49
2022/09/19 04:17:17;;;;;;;5.55;2.20;;;;;;;17.73;77.75;100447.66;5105876;28;20114;-50
2022/09/19 04:19:43;;;;;;;6.38;1.80;;;;;;;17.63;78.19;100448.38;5105750;28;20162;-50
2022/09/19 04:22:10;;;;;;;9.27;1.95;;;;;;;17.54;78.76;100449.13;5079756;28;20419;-47
2022/09/19 04:24:42;;;;;;;12.63;2.60;;;;;;;17.51;79.09;100450.47;5082673;28;20464;-50
2022/09/19 04:27:13;;;;;;;9.95;2.28;;;;;;;17.55;78.95;100454.31;5106455;28;20126;-50
2022/09/19 04:29:40;;;;;;;8.05;2.53;;;;;;;17.53;79.46;100455.63;5106873;28;20020;-48
2022/09/19 04:32:07;;;;;;;15.30;2.58;;;;;;;17.50;79.53;100456.97;5099533;28;20051;-49
2022/09/19 04:34:33;;;;;;;7.45;2.30;;;;;;;17.52;79.59;100457.50;5104540;28;20048;-48
2022/09/19 04:37:02;;;;;;;17.13;2.78;;;;;;;17.60;78.99;100462.44;5105386;28;20034;-49
2022/09/19 04:39:32;;;;;;;9.30;2.95;;;;;;;17.60;79.42;100469.72;5109872;28;20028;-49
2022/09/19 04:41:59;;;;;;;11.35;2.28;;;;;;;17.58;79.47;100472.69;5110073;28;20081;-49
2022/09/19 04:44:29;;;;;;;8.65;3.15;;;;;;;17.53;79.27;100464.56;5098113;28;20028;-50
2022/09/19 04:46:59;;;;;;;10.85;2.60;;;;;;;17.63;79.54;100477.34;5104638;28;20443;-51
2022/09/19 04:49:34;;;;;;;10.82;3.00;;;;;;;17.71;79.00;100471.41;5101323;28;20112;-47
2022/09/19 04:52:01;;;;;;;12.07;2.97;;;;;;;17.60;78.54;100470.56;5080863;28;20024;-50
2022/09/19 04:54:28;;;;;;;9.10;2.88;;;;;;;17.72;78.08;100467.69;5091241;28;20042;-50
2022/09/19 04:56:54;;;;;;;12.27;2.83;;;;;;;17.64;78.41;100465.44;5097226;28;20045;-47
2022/09/19 04:59:20;;;;;;;8.07;2.10;;;;;;;17.59;78.39;100468.91;5094073;28;20027;-50
2022/09/19 05:01:47;;;;;;;12.52;2.08;;;;;;;17.56;78.94;100474.06;5107303;28;20580;-50
2022/09/19 05:04:15;;;;;;;8.30;2.70;;;;;;;17.68;78.13;100474.66;5110366;28;20093;-51
2022/09/19 05:06:41;;;;;;;6.47;2.45;;;;;;;17.66;78.17;100468.72;5097997;28;20026;-51
2022/09/19 05:09:10;;;;;;;10.63;2.35;;;;;;;17.62;78.33;100471.13;5113409;28;20031;-48
2022/09/19 05:11:40;;;;;;;13.48;3.03;;;;;;;17.68;77.79;100478.19;5113434;28;20479;-51
2022/09/19 05:14:09;;;;;;;9.90;2.28;;;;;;;17.67;77.87;100471.16;5108913;28;20024;-50
2022/09/19 05:16:35;;;;;;;8.27;3.38;;;;;;;17.63;78.16;100485.47;5106430;28;20024;-50
2022/09/19 05:19:02;;;;;;;9.27;2.38;;;;;;;17.62;78.03;100487.34;5110748;28;20044;-50
2022/09/19 05:21:28;;;;;;;10.65;2.10;;;;;;;17.72;77.42;100488.50;5096889;28;20086;-50
2022/09/19 05:23:54;;;;;;;9.70;2.00;;;;;;;17.75;77.49;100499.63;5094022;28;20032;-49
2022/09/19 05:26:20;;;;;;;10.80;2.30;;;;;;;17.90;76.92;100490.78;5114744;28;20460;-50
2022/09/19 05:28:46;;;;;;;5.93;1.95;;;;;;;17.79;77.92;100506.16;5105819;28;20108;-50
2022/09/19 05:31:16;;;;;;;19.70;2.80;;;;;;;17.81;77.65;100508.59;5110905;28;20103;-48
2022/09/19 05:33:42;;;;;;;6.65;1.83;;;;;;;17.70;77.38;100513.09;5111118;28;20385;-49
2022/09/19 05:36:08;;;;;;;5.25;1.65;;;;;;;17.73;77.55;100518.03;5110075;28;20080;-51
2022/09/19 05:38:35;;;;;;;7.40;1.90;;;;;;;17.82;77.22;100515.63;5101940;27;20456;-50
2022/09/19 05:41:03;;;;;;;7.63;2.50;;;;;;;17.74;77.39;100514.25;5107787;28;20483;-50
2022/09/19 05:43:30;;;;;;;9.98;2.45;;;;;;;17.87;76.96;100513.78;5114456;28;20028;-50
2022/09/19 05:45:57;;;;;;;8.57;2.50;;;;;;;17.79;76.81;100516.19;5099251;28;20388;-48
2022/09/19 05:48:25;;;;;;;14.07;2.78;;;;;;;17.71;76.94;100519.31;5107327;28;20042;-49
2022/09/19 05:50:52;;;;;;;8.05;2.42;;;;;;;17.78;76.24;100514.56;5112469;28;20054;-50
2022/09/19 05:56:06;;;;;;;16.08;2.88;;;;;;;17.79;76.19;100522.41;5108707;28;20046;-49
2022/09/19 05:58:35;;;;;;;7.45;2.13;;;;;;;17.83;75.80;100526.22;5105827;28;20032;-50
2022/09/19 06:01:09;;;;;;;13.20;3.10;;;;;;;17.84;75.60;100529.75;5103821;27;20158;-50
2022/09/19 06:03:35;;;;;;;9.47;2.50;;;;;;;17.74;76.08;100525.06;5106391;28;20047;-50
2022/09/19 06:06:09;;;;;;;9.82;3.35;;;;;;;17.83;75.97;100531.63;5086219;28;20032;-48
2022/09/19 06:08:35;;;;;;;13.70;2.72;;;;;;;17.83;76.26;100530.81;5080811;28;20051;-49
2022/09/19 06:11:02;;;;;;;7.97;2.90;;;;;;;17.88;75.99;100530.84;5099838;28;20455;-50
2022/09/19 06:14:13;;;;;;;11.68;2.63;;;;;;;17.80;75.40;100539.47;5082882;28;20114;-49
2022/09/19 06:16:14;;;;;;;10.20;2.35;;;;;;;17.76;75.25;100541.06;5094641;28;20422;-49
2022/09/19 06:18:40;;;;;;;12.23;2.35;;;;;;;17.72;75.63;100545.34;5097876;28;20047;-50
2022/09/19 06:21:06;;;;;;;8.68;2.35;;;;;;;17.73;75.22;100547.81;5099046;28;20909;-50
2022/09/19 06:23:32;;;;;;;10.63;2.63;;;;;;;17.83;75.25;100549.78;5110218;28;20036;-50
2022/09/19 06:25:58;;;;;;;11.38;2.67;;;;;;;17.79;75.46;100548.66;5106666;28;20130;-47
2022/09/19 06:28:25;;;;;;;9.55;2.50;;;;;;;17.71;76.46;100558.03;5113352;28;20031;-49
2022/09/19 06:30:51;;;;;;;15.35;3.35;;;;;;;17.90;76.29;100561.19;5099990;28;20036;-51
2022/09/19 06:33:18;;;;;;;8.68;2.35;;;;;;;17.97;74.83;100561.75;5113004;28;20156;-47
2022/09/19 06:35:44;;;;;;;10.25;2.35;;;;;;;18.02;74.46;100559.09;5106501;28;20024;-51
2022/09/19 06:38:11;;;;;;;9.93;2.30;;;;;;;17.78;75.10;100566.00;5111631;28;20475;-51
2022/09/19 06:40:38;;;;;;;7.88;2.45;;;;;;;17.74;74.90;100565.69;5096256;28;20035;-50
2022/09/19 06:43:06;;;;;;;9.20;2.45;;;;;;;17.82;75.45;100558.94;5108904;28;20031;-50
2022/09/19 06:45:37;;;;;;;7.00;2.63;;;;;;;17.97;74.55;100561.75;5105510;28;20023;-49
2022/09/19 06:48:04;;;;;;;7.95;1.83;;;;;;;17.90;75.13;100555.78;5096431;28;20099;-50
2022/09/19 06:50:31;;;;;;;6.63;1.80;;;;;;;18.08;74.35;100568.06;5102944;28;20073;-49
2022/09/19 06:52:58;;;;;;;9.48;2.00;;;;;;;18.06;74.35;100560.19;5102643;28;20031;-50
2022/09/19 06:55:25;;;;;;;9.23;2.45;;;;;;;18.05;74.64;100566.72;5105284;28;20066;-50
2022/09/19 06:57:57;;;;;;;11.68;2.35;;;;;;;18.05;74.40;100572.13;5095077;28;20045;-49
2022/09/19 07:00:25;;;;;;;11.13;2.67;;;;;;;17.82;75.30;100562.50;5089348;28;20388;-49
2022/09/19 07:02:54;;;;;;;9.40;2.25;;;;;;;17.86;74.26;100565.47;5098643;27;20027;-50
2022/09/19 07:05:20;;;;;;;6.45;2.38;;;;;;;18.03;73.95;100568.03;5105931;28;20027;-48
2022/09/19 07:07:48;;;;;;;13.85;2.20;;;;;;;17.97;73.65;100567.19;5111626;28;20035;-50
2022/09/19 07:10:14;;;;;;;7.78;1.88;;;;;;;17.80;74.12;100585.47;5109503;28;20032;-50
2022/09/19 07:12:41;;;;;;;8.35;2.58;;;;;;;17.78;74.52;100574.91;5111360;28;20026;-51
2022/09/19 07:15:07;;;;;;;11.68;2.80;;;;;;;17.87;74.38;100575.22;5103154;27;20127;-48
2022/09/19 07:17:34;;;;;;;6.43;2.40;;;;;;;17.82;74.51;100567.91;5112294;28;20051;-50
2022/09/19 07:20:00;;;;;;;5.85;1.95;;;;;;;17.76;74.96;100573.53;5110312;28;20031;-50
2022/09/19 07:22:26;;;;;;;10.13;2.38;;;;;;;17.72;74.71;100575.13;5101212;28;20059;-50
2022/09/19 07:24:54;;;;;;;7.65;2.58;;;;;;;17.68;74.45;100567.50;5102980;28;20031;-47
2022/09/19 07:27:21;;;;;;;9.70;2.58;;;;;;;17.79;74.05;100576.53;5101429;28;20059;-50
2022/09/19 07:29:47;;;;;;;10.80;2.42;;;;;;;17.68;74.91;100581.03;5091449;28;20375;-50
2022/09/19 07:32:13;;;;;;;8.45;2.75;;;;;;;17.88;74.20;100566.06;5109801;28;20063;-48
2022/09/19 07:34:39;;;;;;;5.72;1.88;;;;;;;17.54;75.00;100568.19;5106536;28;20030;-50
2022/09/19 07:37:05;;;;;;;4.93;1.88;;;;;;;17.72;75.08;100572.41;5108973;28;20027;-50
2022/09/19 07:39:31;;;;;;;10.10;2.42;;;;;;;17.63;75.43;100575.59;5083432;28;20380;-48
2022/09/19 07:41:58;;;;;;;9.77;2.05;;;;;;;17.72;74.56;100580.53;5110771;28;20067;-47
2022/09/19 07:44:24;;;;;;;9.27;2.20;;;;;;;17.58;75.56;100585.56;5103772;28;20046;-50
2022/09/19 07:49:35;;;;;;;8.00;1.75;;;;;;;17.63;74.95;100581.00;5103073;28;20181;-47
2022/09/19 07:52:01;;;;;;;8.98;2.42;;;;;;;17.77;74.58;100586.03;5103944;28;20034;-50
2022/09/19 07:54:28;;;;;;;8.68;2.40;;;;;;;17.61;75.64;100580.44;5107459;28;20035;-50
2022/09/19 07:56:54;;;;;;;6.18;1.75;;;;;;;17.62;75.30;100582.06;5105212;28;20419;-49
2022/09/19 07:59:21;;;;;;;6.88;1.83;;;;;;;17.65;75.21;100589.66;5098506;28;20035;-50
2022/09/19 08:01:47;;;;;;;7.03;1.98;;;;;;;17.66;75.50;100582.38;5110413;28;20467;-49
2022/09/19 08:04:13;;;;;;;7.88;2.20;;;;;;;17.52;75.96;100589.28;5107753;28;20036;-50
2022/09/19 08:06:39;;;;;;;7.32;2.22;;;;;;;17.55;75.90;100588.78;5104329;28;20027;-47
2022/09/19 08:09:05;;;;;;;5.18;1.85;;;;;;;17.56;75.60;100591.22;5110127;28;20043;-48
2022/09/19 08:11:37;;;;;;;7.45;2.08;;;;;;;17.59;75.57;100588.00;5106310;28;20079;-49
2022/09/19 08:14:03;;;;;;;6.63;2.15;;;;;;;17.62;74.75;100595.59;5094310;28;20114;-48
2022/09/19 08:16:30;;;;;;;12.75;2.70;;;;;;;17.63;74.58;100593.72;5105762;28;20024;-48
2022/09/19 08:19:01;;;;;;;7.78;2.47;;;;;;;17.42;75.29;100604.34;5107373;28;20055;-50
2022/09/19 08:21:27;;;;;;;7.10;2.47;;;;;;;17.48;74.88;100591.69;5109104;28;20047;-49
2022/09/19 08:23:53;;;;;;;8.73;2.80;;;;;;;17.36;75.34;100594.56;5108286;28;20035;-50
2022/09/19 08:26:19;;;;;;;10.20;2.40;;;;;;;17.34;75.69;100607.53;5106028;28;20029;-49
2022/09/19 08:28:49;;;;;;;8.63;2.33;;;;;;;17.45;75.54;100604.94;5100630;28;20430;-49
2022/09/19 08:31:15;;;;;;;10.05;1.85;;;;;;;17.41;74.90;100601.91;5101173;28;20028;-50
2022/09/19 08:33:41;;;;;;;6.82;2.10;;;;;;;17.36;75.38;100609.97;5109338;28;20082;-48
2022/09/19 08:36:10;;;;;;;7.70;2.20;;;;;;;17.22;75.10;100609.59;5108308;28;20501;-48
2022/09/19 08:38:36;;;;;;;8.68;2.83;;;;;;;17.23;75.11;100613.94;5115190;28;20383;-48
2022/09/19 08:41:11;;;;;;;6.85;2.42;;;;;;;17.39;74.52;100615.72;5106932;28;20032;-49
2022/09/19 08:43:59;;;;;;;11.18;2.65;;;;;;;17.40;74.40;100617.34;5101133;28;20399;-50
2022/09/19 08:46:44;;;;;;;10.30;2.50;;;;;;;17.49;74.39;100617.69;5108807;28;20031;-51
2022/09/19 08:49:14;;;;;;;;;;;;;;;17.36;74.29;100626.22;5113837;28;20027;-50
2022/09/19 08:51:48;;;;;;;6.75;1.55;;;;;;;17.21;74.48;100628.75;5112506;28;19947;-50
2022/09/19 08:54:21;;;;;;;9.18;2.35;;;;;;;17.04;75.87;100629.69;5109583;28;20046;-50
2022/09/19 08:56:47;;;;;;;8.52;1.75;;;;;;;17.07;75.40;100622.97;5109309;28;20031;-47
2022/09/19 08:59:20;;;;;;;7.45;1.90;;;;;;;17.02;75.98;100631.81;5099159;27;20032;-50
2022/09/19 09:01:48;;;;;;;7.20;1.88;;;;;;;16.98;76.16;100636.09;5110270;28;20484;-49
2022/09/19 09:04:14;;;;;;;4.78;1.73;;;;;;;16.92;76.76;100630.88;5107582;28;20394;-47
2022/09/19 09:06:40;;;;;;;3.97;1.90;;;;;;;16.93;76.97;100644.16;5113909;28;20035;-48
2022/09/19 09:09:32;;;;;;;9.82;2.55;;;;;;;16.88;77.50;100644.13;5112101;28;20036;-50
2022/09/19 09:12:08;;;;;;;5.90;2.20;;;;;;;16.96;78.00;100648.25;5112042;28;20419;-51
2022/09/19 09:14:53;;;;;;;7.63;2.22;;;;;;;17.08;77.02;100648.91;5105421;28;20031;-50
2022/09/19 09:17:34;;;;;;;5.95;2.38;;;;;;;17.00;77.56;100649.38;5112049;28;20403;-48
2022/09/19 09:20:31;;;;;;;6.13;2.20;;;;;;;17.04;77.21;100653.19;5102952;27;20036;-50
2022/09/19 09:23:07;;;;;;;6.35;2.15;;;;;;;17.00;77.26;100658.31;5111283;28;20074;-48
2022/09/19 09:25:38;;;;;;;7.88;2.08;;;;;;;17.17;76.74;100654.72;5107210;28;20048;-48
2022/09/19 09:28:16;;;;;;;9.73;2.10;;;;;;;17.23;75.86;100661.81;5098966;28;20035;-50
2022/09/19 09:30:48;;;;;;;6.72;2.42;;;;;;;17.26;75.84;100663.97;5098891;28;20522;-47
2022/09/19 09:33:31;;;;;;;5.72;1.75;;;;;;;17.03;75.98;100671.31;5110187;28;20488;-50
2022/09/19 09:36:06;;;;;;;8.15;1.73;;;;;;;17.20;75.65;100668.53;5100185;28;20040;-50
2022/09/19 09:38:47;;;;;;;3.72;1.73;;;;;;;17.03;75.79;100675.91;5090767;28;20024;-48
2022/09/19 09:41:49;;;;;;;3.80;1.30;;;;;;;16.97;76.21;100676.91;5111905;28;20690;-47
2022/09/19 09:44:44;;;;;;;6.07;1.35;;;;;;;16.88;76.69;100685.47;5083619;28;20089;-49
2022/09/19 09:47:44;;;;;;;8.18;1.63;;;;;;;16.84;76.52;100678.94;5109256;28;20118;-48
2022/09/19 09:50:19;;;;;;;3.95;1.50;;;;;;;16.82;75.90;100675.69;5088007;28;20044;-51
2022/09/19 09:52:59;;;;;;;;;;;;;;;16.83;75.92;100676.50;5092624;28;20024;-50
2022/09/19 09:58:21;;;;;;;3.47;1.48;;;;;;;16.69;76.25;100680.59;5080336;28;20086;-50
2022/09/19 10:03:49;;;;;;;5.35;1.38;;;;;;;16.58;75.75;100680.44;5093781;28;20034;-51
2022/09/19 10:06:29;;;;;;;3.63;1.33;;;;;;;16.55;76.07;100686.38;5112738;28;20104;-50
2022/09/19 10:09:16;;;;;;;2.65;1.10;;;;;;;16.51;75.99;100679.00;5094314;28;20032;-50
2022/09/19 10:11:58;;;;;;;2.25;1.20;;;;;;;16.48;75.95;100691.09;5114434;28;20050;-48
2022/09/19 10:14:28;;;;;;;1.45;1.00;;;;;;;16.42;76.21;100681.28;5108997;28;20066;-50
2022/09/19 10:17:01;;;;;;;3.20;1.10;;;;;;;16.41;75.79;100695.06;5113954;28;20476;-48
2022/09/19 10:19:44;;;;;;;4.13;1.27;;;;;;;16.34;76.26;100689.84;5112162;27;20131;-50
2022/09/19 10:22:15;;;;;;;2.05;0.85;;;;;;;16.26;75.96;100687.53;5111122;28;20479;-49
2022/09/19 10:24:55;;;;;;;2.33;0.73;;;;;;;16.21;76.61;100691.00;5106717;28;20063;-47
2022/09/19 10:27:26;;;;;;;2.05;0.82;;;;;;;16.20;76.94;100693.94;5109575;28;20019;-50
2022/09/19 10:29:59;;;;;;;2.53;0.98;;;;;;;16.16;77.18;100699.03;5092996;28;20031;-50
2022/09/19 10:32:34;;;;;;;2.70;1.00;;;;;;;16.16;77.32;100698.19;5090857;28;20032;-50
2022/09/19 10:35:01;;;;;;;1.77;0.80;;;;;;;16.15;77.77;100699.25;5080392;28;20124;-48
2022/09/19 10:37:27;;;;;;;1.80;0.70;;;;;;;16.14;77.70;100700.31;5101369;28;20535;-50
2022/09/19 10:40:06;;;;;;;1.90;0.82;;;;;;;16.15;77.87;100704.66;5099952;28;20119;-50
2022/09/19 10:42:41;;;;;;;1.42;1.00;;;;;;;16.14;77.65;100697.63;5112402;28;20107;-48
2022/09/19 10:45:26;;;;;;;1.83;1.07;;;;;;;16.08;77.42;100702.94;5105496;28;20019;-51
2022/09/19 10:48:17;;;;;;;1.00;0.70;;;;;;;16.03;77.50;100704.75;5105398;28;20063;-57
2022/09/19 10:50:49;;;;;;;1.00;0.80;;;;;;;15.96;77.58;100694.09;5102044;28;20030;-49
2022/09/19 10:53:27;;;;;;;1.38;0.80;;;;;;;15.90;77.45;100697.78;5092731;28;20020;-50
2022/09/19 10:55:56;;;;;;;2.08;0.80;;;;;;;15.86;76.90;100699.34;5091814;28;20465;-49
2022/09/19 10:58:27;;;;;;;1.52;0.80;;;;;;;15.87;76.97;100700.16;5092366;28;20073;-49
2022/09/19 11:01:03;;;;;;;1.17;0.98;;;;;;;15.84;76.85;100707.69;5091878;28;20024;-47
2022/09/19 11:03:35;;;;;;;1.75;0.82;;;;;;;15.80;76.91;100709.22;5092701;28;20031;-49
2022/09/19 11:06:19;;;;;;;1.20;0.60;;;;;;;15.73;76.90;100710.44;5092223;28;20062;-50
2022/09/19 11:08:47;;;;;;;3.00;0.90;;;;;;;15.71;77.14;100705.31;5091437;28;20677;-50
2022/09/19 11:11:37;;;;;;;2.45;0.93;;;;;;;15.68;77.01;100713.06;5108669;28;20051;-50
2022/09/19 11:14:26;;;;;;;2.45;1.25;;;;;;;15.60;76.97;100706.13;5111898;28;20065;-48
2022/09/19 11:17:19;;;;;;;1.63;0.90;;;;;;;15.55;77.04;100711.44;5079636;28;20476;-55
2022/09/19 11:19:54;;;;;;;1.30;0.77;;;;;;;15.51;76.73;100710.28;5093500;28;20047;-47
2022/09/19 11:22:33;;;;;;;1.23;0.95;;;;;;;15.40;77.17;100717.38;5092053;28;20028;-47
2022/09/19 11:25:08;;;;;;;2.97;0.70;;;;;;;15.40;77.18;100716.56;5088035;28;20052;-48
2022/09/19 11:27:34;;;;;;;;;;;;;;;15.42;77.05;100717.13;5093402;28;20008;-47
2022/09/19 11:30:24;;;;;;;1.92;1.02;;;;;;;15.39;77.25;100712.22;5090949;28;19920;-47
2022/09/19 11:33:24;;;;;;;6.72;1.40;;;;;;;15.36;77.40;100716.22;5101496;28;20106;-46
2022/09/19 11:36:19;;;;;;;2.13;1.23;;;;;;;15.39;77.60;100723.84;5092028;28;20024;-50
2022/09/19 11:39:03;;;;;;;5.82;1.38;;;;;;;15.38;78.08;100722.19;5081161;28;20031;-47
2022/09/19 11:41:51;;;;;;;3.67;1.25;;;;;;;15.38;78.41;100724.03;5071291;28;20107;-50
2022/09/19 11:44:23;;;;;;;2.35;1.08;;;;;;;15.39;78.62;100721.13;5087449;28;20024;-48
2022/09/19 11:47:06;;;;;;;3.33;1.27;;;;;;;15.42;78.73;100725.22;5076062;28;20028;-48
2022/09/19 11:50:01;;;;;;;1.67;1.35;;;;;;;15.42;79.19;100727.91;5085827;28;20032;-50
2022/09/19 11:52:30;;;;;;;2.00;1.10;;;;;;;15.46;79.34;100735.28;5090960;28;20097;-50
2022/09/19 11:55:04;;;;;;;4.13;1.40;;;;;;;15.45;80.43;100736.34;5091631;28;20039;-50
2022/09/19 11:57:42;;;;;;;2.35;1.15;;;;;;;15.51;80.50;100737.28;5087383;28;20027;-50
2022/09/19 12:00:22;;;;;;;4.10;1.33;;;;;;;15.59;80.50;100739.56;5095919;28;20038;-48
2022/09/19 12:02:59;;;;;;;4.55;1.02;;;;;;;15.60;80.50;100738.50;5111689;28;20071;-46
2022/09/19 12:05:50;;;;;;;5.03;0.95;;;;;;;15.62;80.65;100738.28;5094543;28;20395;-50
2022/09/19 12:08:24;;;;;;;4.50;1.08;;;;;;;15.80;80.38;100744.31;5091144;28;20020;-46